sensor_id;sensor_type;location;lat;lon;timestamp;temperature;humidity
63704;SHT31;49851;53.684;10.216;2022-11-15T00:00:02;7.97;87.80
63704;SHT31;49851;53.684;10.216;2022-11-15T00:02:28;7.97;88.15
63704;SHT31;49851;53.684;10.216;2022-11-15T00:04:53;7.99;88.25
63704;SHT31;49851;53.684;10.216;2022-11-15T00:07:18;7.99;88.31
63704;SHT31;49851;53.684;10.216;2022-11-15T00:09:44;8.01;88.21
63704;SHT31;49851;53.684;10.216;2022-11-15T00:12:09;7.99;87.41
63704;SHT31;49851;53.684;10.216;2022-11-15T00:14:34;8.01;87.46
63704;SHT31;49851;53.684;10.216;2022-11-15T00:17:00;7.98;87.08
63704;SHT31;49851;53.684;10.216;2022-11-15T00:19:25;7.95;86.97
63704;SHT31;49851;53.684;10.216;2022-11-15T00:21:50;7.94;86.82
63704;SHT31;49851;53.684;10.216;2022-11-15T00:24:15;7.93;86.66
63704;SHT31;49851;53.684;10.216;2022-11-15T00:26:41;7.91;87.34
63704;SHT31;49851;53.684;10.216;2022-11-15T00:29:06;7.91;87.23
63704;SHT31;49851;53.684;10.216;2022-11-15T00:31:31;7.87;87.09
63704;SHT31;49851;53.684;10.216;2022-11-15T00:33:57;7.86;86.86
63704;SHT31;49851;53.684;10.216;2022-11-15T00:36:22;7.86;87.91
63704;SHT31;49851;53.684;10.216;2022-11-15T00:38:47;7.83;87.64
63704;SHT31;49851;53.684;10.216;2022-11-15T00:41:12;7.83;87.55
63704;SHT31;49851;53.684;10.216;2022-11-15T00:43:38;7.80;87.59
63704;SHT31;49851;53.684;10.216;2022-11-15T00:46:04;7.77;87.35
63704;SHT31;49851;53.684;10.216;2022-11-15T00:48:30;7.74;87.17
63704;SHT31;49851;53.684;10.216;2022-11-15T00:50:56;7.77;87.39
63704;SHT31;49851;53.684;10.216;2022-11-15T00:53:21;7.79;86.88
63704;SHT31;49851;53.684;10.216;2022-11-15T00:55:47;7.76;87.31
63704;SHT31;49851;53.684;10.216;2022-11-15T00:58:12;7.74;86.83
63704;SHT31;49851;53.684;10.216;2022-11-15T01:00:37;7.70;86.77
63704;SHT31;49851;53.684;10.216;2022-11-15T01:03:02;7.69;86.92
63704;SHT31;49851;53.684;10.216;2022-11-15T01:05:28;7.67;87.31
63704;SHT31;49851;53.684;10.216;2022-11-15T01:07:54;7.71;87.63
63704;SHT31;49851;53.684;10.216;2022-11-15T01:10:19;7.69;87.73
63704;SHT31;49851;53.684;10.216;2022-11-15T01:12:44;7.66;87.23
63704;SHT31;49851;53.684;10.216;2022-11-15T01:15:10;7.67;87.48
63704;SHT31;49851;53.684;10.216;2022-11-15T01:17:35;7.66;87.23
63704;SHT31;49851;53.684;10.216;2022-11-15T01:20:00;7.67;87.37
63704;SHT31;49851;53.684;10.216;2022-11-15T01:22:26;7.66;87.17
63704;SHT31;49851;53.684;10.216;2022-11-15T01:24:51;7.67;87.72
63704;SHT31;49851;53.684;10.216;2022-11-15T01:27:16;7.66;87.74
63704;SHT31;49851;53.684;10.216;2022-11-15T01:29:42;7.63;87.62
63704;SHT31;49851;53.684;10.216;2022-11-15T01:32:07;7.63;87.29
63704;SHT31;49851;53.684;10.216;2022-11-15T01:34:32;7.60;86.59
63704;SHT31;49851;53.684;10.216;2022-11-15T01:36:58;7.60;87.19
63704;SHT31;49851;53.684;10.216;2022-11-15T01:39:23;7.59;86.86
63704;SHT31;49851;53.684;10.216;2022-11-15T01:41:49;7.60;86.85
63704;SHT31;49851;53.684;10.216;2022-11-15T01:46:58;7.56;86.49
63704;SHT31;49851;53.684;10.216;2022-11-15T01:49:24;7.53;86.32
63704;SHT31;49851;53.684;10.216;2022-11-15T01:51:51;7.55;86.74
63704;SHT31;49851;53.684;10.216;2022-11-15T01:54:18;7.52;86.55
63704;SHT31;49851;53.684;10.216;2022-11-15T01:56:50;7.53;86.49
63704;SHT31;49851;53.684;10.216;2022-11-15T01:59:16;7.52;86.75
63704;SHT31;49851;53.684;10.216;2022-11-15T02:01:43;7.48;86.36
63704;SHT31;49851;53.684;10.216;2022-11-15T02:04:22;7.51;86.86
63704;SHT31;49851;53.684;10.216;2022-11-15T02:06:49;7.48;87.20
63704;SHT31;49851;53.684;10.216;2022-11-15T02:09:14;7.49;87.28
63704;SHT31;49851;53.684;10.216;2022-11-15T02:11:40;7.48;87.37
63704;SHT31;49851;53.684;10.216;2022-11-15T02:14:05;7.49;87.31
63704;SHT31;49851;53.684;10.216;2022-11-15T02:29:42;7.38;86.48
63704;SHT31;49851;53.684;10.216;2022-11-15T02:32:18;7.38;86.29
63704;SHT31;49851;53.684;10.216;2022-11-15T02:37:19;7.31;86.09
63704;SHT31;49851;53.684;10.216;2022-11-15T02:42:19;7.28;86.33
63704;SHT31;49851;53.684;10.216;2022-11-15T02:45:05;7.27;86.37
63704;SHT31;49851;53.684;10.216;2022-11-15T02:47:32;7.29;86.54
63704;SHT31;49851;53.684;10.216;2022-11-15T02:50:00;7.27;86.74
63704;SHT31;49851;53.684;10.216;2022-11-15T02:52:26;7.25;87.13
63704;SHT31;49851;53.684;10.216;2022-11-15T02:54:55;7.22;87.02
63704;SHT31;49851;53.684;10.216;2022-11-15T02:57:26;7.21;86.49
63704;SHT31;49851;53.684;10.216;2022-11-15T03:00:02;7.22;86.34
63704;SHT31;49851;53.684;10.216;2022-11-15T03:05:10;7.17;86.50
63704;SHT31;49851;53.684;10.216;2022-11-15T03:07:41;7.17;86.68
63704;SHT31;49851;53.684;10.216;2022-11-15T03:17:25;7.08;87.71
63704;SHT31;49851;53.684;10.216;2022-11-15T03:19:58;7.05;87.67
63704;SHT31;49851;53.684;10.216;2022-11-15T03:22:25;7.10;87.71
63704;SHT31;49851;53.684;10.216;2022-11-15T03:24:59;7.10;87.86
63704;SHT31;49851;53.684;10.216;2022-11-15T03:27:27;7.11;87.77
63704;SHT31;49851;53.684;10.216;2022-11-15T03:29:54;7.08;87.87
63704;SHT31;49851;53.684;10.216;2022-11-15T03:32:23;7.08;87.80
63704;SHT31;49851;53.684;10.216;2022-11-15T03:34:50;7.05;87.78
63704;SHT31;49851;53.684;10.216;2022-11-15T03:37:17;7.05;87.14
63704;SHT31;49851;53.684;10.216;2022-11-15T03:39:45;7.03;86.70
63704;SHT31;49851;53.684;10.216;2022-11-15T03:49:46;7.00;87.40
63704;SHT31;49851;53.684;10.216;2022-11-15T03:52:12;7.00;87.74
63704;SHT31;49851;53.684;10.216;2022-11-15T03:54:47;6.99;87.86
63704;SHT31;49851;53.684;10.216;2022-11-15T03:57:12;6.99;87.93
63704;SHT31;49851;53.684;10.216;2022-11-15T03:59:37;7.00;88.34
63704;SHT31;49851;53.684;10.216;2022-11-15T04:02:03;7.00;88.19
63704;SHT31;49851;53.684;10.216;2022-11-15T04:04:28;7.03;88.37
63704;SHT31;49851;53.684;10.216;2022-11-15T04:06:53;7.04;87.67
63704;SHT31;49851;53.684;10.216;2022-11-15T04:09:18;7.03;87.50
63704;SHT31;49851;53.684;10.216;2022-11-15T04:11:44;7.01;87.31
63704;SHT31;49851;53.684;10.216;2022-11-15T04:14:09;7.00;87.54
63704;SHT31;49851;53.684;10.216;2022-11-15T04:16:34;6.99;87.24
63704;SHT31;49851;53.684;10.216;2022-11-15T04:18:59;6.97;87.49
63704;SHT31;49851;53.684;10.216;2022-11-15T04:21:43;6.94;87.40
63704;SHT31;49851;53.684;10.216;2022-11-15T04:24:28;6.93;87.33
63704;SHT31;49851;53.684;10.216;2022-11-15T04:26:53;6.93;87.00
63704;SHT31;49851;53.684;10.216;2022-11-15T04:29:18;6.94;87.59
63704;SHT31;49851;53.684;10.216;2022-11-15T04:32:05;6.91;87.84
63704;SHT31;49851;53.684;10.216;2022-11-15T04:34:30;6.90;88.02
63704;SHT31;49851;53.684;10.216;2022-11-15T04:36:56;6.87;88.01
63704;SHT31;49851;53.684;10.216;2022-11-15T04:39:36;6.89;88.13
63704;SHT31;49851;53.684;10.216;2022-11-15T04:42:02;6.90;88.25
63704;SHT31;49851;53.684;10.216;2022-11-15T04:44:27;6.91;88.18
63704;SHT31;49851;53.684;10.216;2022-11-15T04:46:52;6.91;88.22
63704;SHT31;49851;53.684;10.216;2022-11-15T04:49:17;6.91;88.24
63704;SHT31;49851;53.684;10.216;2022-11-15T04:51:43;6.90;87.95
63704;SHT31;49851;53.684;10.216;2022-11-15T04:54:08;6.91;87.96
63704;SHT31;49851;53.684;10.216;2022-11-15T04:56:33;6.90;88.03
63704;SHT31;49851;53.684;10.216;2022-11-15T04:58:58;6.93;88.23
63704;SHT31;49851;53.684;10.216;2022-11-15T05:01:23;6.91;88.34
63704;SHT31;49851;53.684;10.216;2022-11-15T05:03:49;6.90;88.49
63704;SHT31;49851;53.684;10.216;2022-11-15T05:06:32;6.96;88.49
63704;SHT31;49851;53.684;10.216;2022-11-15T05:08:57;6.91;88.70
63704;SHT31;49851;53.684;10.216;2022-11-15T05:11:23;6.93;88.82
63704;SHT31;49851;53.684;10.216;2022-11-15T05:13:48;6.97;88.70
63704;SHT31;49851;53.684;10.216;2022-11-15T05:16:13;6.97;88.51
63704;SHT31;49851;53.684;10.216;2022-11-15T05:18:39;6.96;88.62
63704;SHT31;49851;53.684;10.216;2022-11-15T05:21:09;6.99;88.90
63704;SHT31;49851;53.684;10.216;2022-11-15T05:23:35;6.99;88.93
63704;SHT31;49851;53.684;10.216;2022-11-15T05:26:01;6.96;89.14
63704;SHT31;49851;53.684;10.216;2022-11-15T05:28:26;6.99;89.02
63704;SHT31;49851;53.684;10.216;2022-11-15T05:30:51;6.96;89.26
63704;SHT31;49851;53.684;10.216;2022-11-15T05:33:17;7.00;89.49
63704;SHT31;49851;53.684;10.216;2022-11-15T05:35:42;7.00;89.32
63704;SHT31;49851;53.684;10.216;2022-11-15T05:38:10;7.01;89.37
63704;SHT31;49851;53.684;10.216;2022-11-15T05:40:35;7.04;89.02
63704;SHT31;49851;53.684;10.216;2022-11-15T05:43:01;7.05;88.53
63704;SHT31;49851;53.684;10.216;2022-11-15T05:45:27;7.05;88.73
63704;SHT31;49851;53.684;10.216;2022-11-15T05:47:53;7.08;89.11
63704;SHT31;49851;53.684;10.216;2022-11-15T05:50:19;7.08;89.34
63704;SHT31;49851;53.684;10.216;2022-11-15T05:52:45;7.11;89.42
63704;SHT31;49851;53.684;10.216;2022-11-15T05:55:10;7.11;89.25
63704;SHT31;49851;53.684;10.216;2022-11-15T05:57:36;7.14;89.18
63704;SHT31;49851;53.684;10.216;2022-11-15T06:00:02;7.14;89.15
63704;SHT31;49851;53.684;10.216;2022-11-15T06:02:27;7.15;89.26
63704;SHT31;49851;53.684;10.216;2022-11-15T06:04:53;7.14;89.31
63704;SHT31;49851;53.684;10.216;2022-11-15T06:07:18;7.17;89.49
63704;SHT31;49851;53.684;10.216;2022-11-15T06:09:43;7.17;89.27
63704;SHT31;49851;53.684;10.216;2022-11-15T06:12:08;7.21;89.21
63704;SHT31;49851;53.684;10.216;2022-11-15T06:14:33;7.17;89.11
63704;SHT31;49851;53.684;10.216;2022-11-15T06:16:59;7.18;89.20
63704;SHT31;49851;53.684;10.216;2022-11-15T06:19:24;7.18;89.22
63704;SHT31;49851;53.684;10.216;2022-11-15T06:21:49;7.19;89.22
63704;SHT31;49851;53.684;10.216;2022-11-15T06:24:14;7.21;89.28
63704;SHT31;49851;53.684;10.216;2022-11-15T06:26:40;7.22;89.24
63704;SHT31;49851;53.684;10.216;2022-11-15T06:29:05;7.21;89.28
63704;SHT31;49851;53.684;10.216;2022-11-15T06:31:30;7.21;89.25
63704;SHT31;49851;53.684;10.216;2022-11-15T06:33:56;7.24;89.28
63704;SHT31;49851;53.684;10.216;2022-11-15T06:36:21;7.27;89.30
63704;SHT31;49851;53.684;10.216;2022-11-15T06:38:46;7.27;89.04
63704;SHT31;49851;53.684;10.216;2022-11-15T06:41:12;7.22;89.07
63704;SHT31;49851;53.684;10.216;2022-11-15T06:43:37;7.21;89.27
63704;SHT31;49851;53.684;10.216;2022-11-15T06:46:03;7.24;89.37
63704;SHT31;49851;53.684;10.216;2022-11-15T06:48:29;7.24;89.48
63704;SHT31;49851;53.684;10.216;2022-11-15T06:50:55;7.28;89.70
63704;SHT31;49851;53.684;10.216;2022-11-15T06:53:21;7.31;89.76
63704;SHT31;49851;53.684;10.216;2022-11-15T06:55:46;7.31;89.52
63704;SHT31;49851;53.684;10.216;2022-11-15T06:58:11;7.31;89.17
63704;SHT31;49851;53.684;10.216;2022-11-15T07:00:37;7.31;89.06
63704;SHT31;49851;53.684;10.216;2022-11-15T07:03:02;7.31;89.07
63704;SHT31;49851;53.684;10.216;2022-11-15T07:05:28;7.32;88.98
63704;SHT31;49851;53.684;10.216;2022-11-15T07:07:54;7.32;89.35
63704;SHT31;49851;53.684;10.216;2022-11-15T07:10:20;7.35;89.21
63704;SHT31;49851;53.684;10.216;2022-11-15T07:12:48;7.34;89.21
63704;SHT31;49851;53.684;10.216;2022-11-15T07:15:14;7.35;89.22
63704;SHT31;49851;53.684;10.216;2022-11-15T07:17:39;7.41;89.20
63704;SHT31;49851;53.684;10.216;2022-11-15T07:20:05;7.41;89.36
63704;SHT31;49851;53.684;10.216;2022-11-15T07:22:30;7.39;89.47
63704;SHT31;49851;53.684;10.216;2022-11-15T07:24:55;7.43;89.61
63704;SHT31;49851;53.684;10.216;2022-11-15T07:27:20;7.43;89.49
63704;SHT31;49851;53.684;10.216;2022-11-15T07:29:46;7.48;89.50
63704;SHT31;49851;53.684;10.216;2022-11-15T07:32:11;7.49;89.50
63704;SHT31;49851;53.684;10.216;2022-11-15T07:34:36;7.55;89.17
63704;SHT31;49851;53.684;10.216;2022-11-15T07:37:01;7.53;88.94
63704;SHT31;49851;53.684;10.216;2022-11-15T07:39:27;7.56;89.15
63704;SHT31;49851;53.684;10.216;2022-11-15T07:41:52;7.56;89.23
63704;SHT31;49851;53.684;10.216;2022-11-15T07:44:37;7.58;89.42
63704;SHT31;49851;53.684;10.216;2022-11-15T07:47:02;7.63;89.36
63704;SHT31;49851;53.684;10.216;2022-11-15T07:49:28;7.67;88.70
63704;SHT31;49851;53.684;10.216;2022-11-15T07:51:53;7.67;88.43
63704;SHT31;49851;53.684;10.216;2022-11-15T07:54:18;7.62;88.87
63704;SHT31;49851;53.684;10.216;2022-11-15T07:56:43;7.60;89.18
63704;SHT31;49851;53.684;10.216;2022-11-15T07:59:09;7.62;89.31
63704;SHT31;49851;53.684;10.216;2022-11-15T08:01:34;7.63;89.72
63704;SHT31;49851;53.684;10.216;2022-11-15T08:03:59;7.66;89.56
63704;SHT31;49851;53.684;10.216;2022-11-15T08:06:24;7.66;89.31
63704;SHT31;49851;53.684;10.216;2022-11-15T08:08:49;7.69;89.40
63704;SHT31;49851;53.684;10.216;2022-11-15T08:11:15;7.66;89.36
63704;SHT31;49851;53.684;10.216;2022-11-15T08:13:40;7.70;89.45
63704;SHT31;49851;53.684;10.216;2022-11-15T08:16:05;7.71;89.83
63704;SHT31;49851;53.684;10.216;2022-11-15T08:18:30;7.77;89.64
63704;SHT31;49851;53.684;10.216;2022-11-15T08:20:59;7.79;89.70
63704;SHT31;49851;53.684;10.216;2022-11-15T08:23:24;7.81;89.38
63704;SHT31;49851;53.684;10.216;2022-11-15T08:25:50;7.83;89.41
63704;SHT31;49851;53.684;10.216;2022-11-15T08:28:15;7.87;89.05
63704;SHT31;49851;53.684;10.216;2022-11-15T08:30:41;7.83;88.99
63704;SHT31;49851;53.684;10.216;2022-11-15T08:33:10;7.81;89.11
63704;SHT31;49851;53.684;10.216;2022-11-15T08:35:35;7.87;89.28
63704;SHT31;49851;53.684;10.216;2022-11-15T08:38:00;7.88;89.17
63704;SHT31;49851;53.684;10.216;2022-11-15T08:40:26;7.90;88.67
63704;SHT31;49851;53.684;10.216;2022-11-15T08:42:52;7.93;88.93
63704;SHT31;49851;53.684;10.216;2022-11-15T08:45:17;7.91;88.62
63704;SHT31;49851;53.684;10.216;2022-11-15T08:47:42;7.97;88.45
63704;SHT31;49851;53.684;10.216;2022-11-15T08:50:07;7.90;88.89
63704;SHT31;49851;53.684;10.216;2022-11-15T08:52:33;7.90;89.12
63704;SHT31;49851;53.684;10.216;2022-11-15T08:54:58;7.88;88.90
63704;SHT31;49851;53.684;10.216;2022-11-15T08:57:24;7.93;88.71
63704;SHT31;49851;53.684;10.216;2022-11-15T08:59:49;7.93;89.03
63704;SHT31;49851;53.684;10.216;2022-11-15T09:02:14;7.91;89.27
63704;SHT31;49851;53.684;10.216;2022-11-15T09:04:43;7.99;89.27
63704;SHT31;49851;53.684;10.216;2022-11-15T09:07:11;8.05;89.01
63704;SHT31;49851;53.684;10.216;2022-11-15T09:09:37;8.04;88.84
63704;SHT31;49851;53.684;10.216;2022-11-15T09:12:03;8.02;88.77
63704;SHT31;49851;53.684;10.216;2022-11-15T09:14:28;8.02;88.84
63704;SHT31;49851;53.684;10.216;2022-11-15T09:16:53;8.09;88.84
63704;SHT31;49851;53.684;10.216;2022-11-15T09:19:19;8.08;88.96
63704;SHT31;49851;53.684;10.216;2022-11-15T09:21:44;8.08;89.14
63704;SHT31;49851;53.684;10.216;2022-11-15T09:24:09;8.11;89.21
63704;SHT31;49851;53.684;10.216;2022-11-15T09:26:34;8.09;89.08
63704;SHT31;49851;53.684;10.216;2022-11-15T09:29:00;8.11;89.16
63704;SHT31;49851;53.684;10.216;2022-11-15T09:31:26;8.12;89.15
63704;SHT31;49851;53.684;10.216;2022-11-15T09:33:51;8.15;89.18
63704;SHT31;49851;53.684;10.216;2022-11-15T09:36:17;8.18;89.29
63704;SHT31;49851;53.684;10.216;2022-11-15T09:38:42;8.20;89.38
63704;SHT31;49851;53.684;10.216;2022-11-15T09:43:42;8.22;89.37
63704;SHT31;49851;53.684;10.216;2022-11-15T09:50:59;8.29;89.33
63704;SHT31;49851;53.684;10.216;2022-11-15T09:53:26;8.32;89.48
63704;SHT31;49851;53.684;10.216;2022-11-15T10:00:54;8.39;89.17
63704;SHT31;49851;53.684;10.216;2022-11-15T10:05:49;8.43;88.96
63704;SHT31;49851;53.684;10.216;2022-11-15T10:10:52;8.48;89.19
63704;SHT31;49851;53.684;10.216;2022-11-15T10:13:25;8.46;89.14
63704;SHT31;49851;53.684;10.216;2022-11-15T10:15:50;8.49;89.49
63704;SHT31;49851;53.684;10.216;2022-11-15T10:20:59;8.52;89.44
63704;SHT31;49851;53.684;10.216;2022-11-15T10:23:27;8.57;89.32
63704;SHT31;49851;53.684;10.216;2022-11-15T10:25:53;8.64;89.14
63704;SHT31;49851;53.684;10.216;2022-11-15T10:28:25;8.67;89.05
63704;SHT31;49851;53.684;10.216;2022-11-15T10:30:53;8.73;89.20
63704;SHT31;49851;53.684;10.216;2022-11-15T10:35:46;8.83;89.11
63704;SHT31;49851;53.684;10.216;2022-11-15T10:38:11;8.85;88.69
63704;SHT31;49851;53.684;10.216;2022-11-15T10:40:38;8.88;89.00
63704;SHT31;49851;53.684;10.216;2022-11-15T10:45:34;8.97;88.77
63704;SHT31;49851;53.684;10.216;2022-11-15T10:48:42;8.92;88.98
63704;SHT31;49851;53.684;10.216;2022-11-15T10:50:48;8.98;89.19
63704;SHT31;49851;53.684;10.216;2022-11-15T10:53:31;9.00;88.99
63704;SHT31;49851;53.684;10.216;2022-11-15T10:56:06;9.02;89.09
63704;SHT31;49851;53.684;10.216;2022-11-15T10:58:41;9.04;88.85
63704;SHT31;49851;53.684;10.216;2022-11-15T11:03:36;9.15;89.19
63704;SHT31;49851;53.684;10.216;2022-11-15T11:06:06;9.18;89.04
63704;SHT31;49851;53.684;10.216;2022-11-15T11:08:31;9.20;88.97
63704;SHT31;49851;53.684;10.216;2022-11-15T11:10:58;9.22;88.81
63704;SHT31;49851;53.684;10.216;2022-11-15T11:13:28;9.23;88.82
63704;SHT31;49851;53.684;10.216;2022-11-15T11:16:03;9.25;89.30
63704;SHT31;49851;53.684;10.216;2022-11-15T11:18:36;9.29;88.81
63704;SHT31;49851;53.684;10.216;2022-11-15T11:21:05;9.33;89.03
63704;SHT31;49851;53.684;10.216;2022-11-15T11:23:38;9.35;88.69
63704;SHT31;49851;53.684;10.216;2022-11-15T11:26:42;9.39;88.65
63704;SHT31;49851;53.684;10.216;2022-11-15T11:29:20;9.44;88.85
63704;SHT31;49851;53.684;10.216;2022-11-15T11:39:32;9.58;88.78
63704;SHT31;49851;53.684;10.216;2022-11-15T11:49:34;9.74;88.31
63704;SHT31;49851;53.684;10.216;2022-11-15T11:52:07;9.74;88.71
63704;SHT31;49851;53.684;10.216;2022-11-15T11:55:17;9.73;88.43
63704;SHT31;49851;53.684;10.216;2022-11-15T12:02:43;9.85;88.69
63704;SHT31;49851;53.684;10.216;2022-11-15T12:05:12;9.88;88.46
63704;SHT31;49851;53.684;10.216;2022-11-15T12:07:39;9.90;88.81
63704;SHT31;49851;53.684;10.216;2022-11-15T12:10:15;9.95;88.77
63704;SHT31;49851;53.684;10.216;2022-11-15T12:12:44;9.97;88.55
63704;SHT31;49851;53.684;10.216;2022-11-15T12:15:13;10.02;88.57
63704;SHT31;49851;53.684;10.216;2022-11-15T12:17:40;10.09;88.65
63704;SHT31;49851;53.684;10.216;2022-11-15T12:20:14;10.10;88.56
63704;SHT31;49851;53.684;10.216;2022-11-15T12:29:57;10.13;88.33
63704;SHT31;49851;53.684;10.216;2022-11-15T12:32:31;10.19;88.25
63704;SHT31;49851;53.684;10.216;2022-11-15T12:34:58;10.16;88.38
63704;SHT31;49851;53.684;10.216;2022-11-15T12:37:34;10.22;88.38
63704;SHT31;49851;53.684;10.216;2022-11-15T12:40:03;10.22;88.58
63704;SHT31;49851;53.684;10.216;2022-11-15T12:42:39;10.30;88.46
63704;SHT31;49851;53.684;10.216;2022-11-15T12:45:23;10.39;87.88
63704;SHT31;49851;53.684;10.216;2022-11-15T12:47:49;10.39;88.13
63704;SHT31;49851;53.684;10.216;2022-11-15T12:50:14;10.37;88.31
63704;SHT31;49851;53.684;10.216;2022-11-15T12:53:02;10.39;88.46
63704;SHT31;49851;53.684;10.216;2022-11-15T12:55:29;10.40;88.38
63704;SHT31;49851;53.684;10.216;2022-11-15T12:57:55;10.43;88.36
63704;SHT31;49851;53.684;10.216;2022-11-15T13:02:45;10.47;88.63
63704;SHT31;49851;53.684;10.216;2022-11-15T13:17:37;10.64;88.62
63704;SHT31;49851;53.684;10.216;2022-11-15T13:22:39;10.75;88.21
63704;SHT31;49851;53.684;10.216;2022-11-15T13:28:01;10.87;87.69
63704;SHT31;49851;53.684;10.216;2022-11-15T13:30:27;10.81;88.31
63704;SHT31;49851;53.684;10.216;2022-11-15T13:32:54;10.82;88.33
63704;SHT31;49851;53.684;10.216;2022-11-15T13:35:26;10.94;87.91
63704;SHT31;49851;53.684;10.216;2022-11-15T13:37:52;10.96;87.69
63704;SHT31;49851;53.684;10.216;2022-11-15T13:42:46;11.02;87.55
63704;SHT31;49851;53.684;10.216;2022-11-15T13:45:15;11.05;87.96
63704;SHT31;49851;53.684;10.216;2022-11-15T13:47:41;11.08;88.14
63704;SHT31;49851;53.684;10.216;2022-11-15T13:50:10;11.15;87.56
63704;SHT31;49851;53.684;10.216;2022-11-15T13:52:35;11.20;87.06
63704;SHT31;49851;53.684;10.216;2022-11-15T13:55:04;11.22;87.08
63704;SHT31;49851;53.684;10.216;2022-11-15T13:57:44;11.22;87.06
63704;SHT31;49851;53.684;10.216;2022-11-15T14:02:50;11.20;87.04
63704;SHT31;49851;53.684;10.216;2022-11-15T14:05:17;11.20;87.64
63704;SHT31;49851;53.684;10.216;2022-11-15T14:07:52;11.22;87.69
63704;SHT31;49851;53.684;10.216;2022-11-15T14:10:26;11.22;87.73
63704;SHT31;49851;53.684;10.216;2022-11-15T14:12:52;11.24;87.43
63704;SHT31;49851;53.684;10.216;2022-11-15T14:15:23;11.23;87.41
63704;SHT31;49851;53.684;10.216;2022-11-15T14:17:49;11.22;87.77
63704;SHT31;49851;53.684;10.216;2022-11-15T14:22:55;11.18;87.89
63704;SHT31;49851;53.684;10.216;2022-11-15T14:25:22;11.16;88.07
63704;SHT31;49851;53.684;10.216;2022-11-15T14:30:31;11.13;88.24
63704;SHT31;49851;53.684;10.216;2022-11-15T14:32:56;11.12;88.33
63704;SHT31;49851;53.684;10.216;2022-11-15T14:35:22;11.13;87.87
63704;SHT31;49851;53.684;10.216;2022-11-15T14:37:47;11.13;88.22
63704;SHT31;49851;53.684;10.216;2022-11-15T14:40:14;11.20;87.98
63704;SHT31;49851;53.684;10.216;2022-11-15T14:42:40;11.23;88.13
63704;SHT31;49851;53.684;10.216;2022-11-15T14:45:17;11.22;87.75
63704;SHT31;49851;53.684;10.216;2022-11-15T14:47:43;11.23;88.12
63704;SHT31;49851;53.684;10.216;2022-11-15T14:50:26;11.27;88.09
63704;SHT31;49851;53.684;10.216;2022-11-15T14:52:52;11.24;87.61
63704;SHT31;49851;53.684;10.216;2022-11-15T14:55:25;11.24;88.08
63704;SHT31;49851;53.684;10.216;2022-11-15T14:57:50;11.23;87.82
63704;SHT31;49851;53.684;10.216;2022-11-15T15:00:17;11.22;87.53
63704;SHT31;49851;53.684;10.216;2022-11-15T15:02:43;11.22;86.35
63704;SHT31;49851;53.684;10.216;2022-11-15T15:05:16;11.20;87.28
63704;SHT31;49851;53.684;10.216;2022-11-15T15:07:41;11.19;87.62
63704;SHT31;49851;53.684;10.216;2022-11-15T15:10:07;11.22;87.44
63704;SHT31;49851;53.684;10.216;2022-11-15T15:12:32;11.20;87.92
63704;SHT31;49851;53.684;10.216;2022-11-15T15:14:58;11.24;87.36
63704;SHT31;49851;53.684;10.216;2022-11-15T15:17:23;11.24;87.75
63704;SHT31;49851;53.684;10.216;2022-11-15T15:19:48;11.20;88.13
63704;SHT31;49851;53.684;10.216;2022-11-15T15:22:14;11.22;87.16
63704;SHT31;49851;53.684;10.216;2022-11-15T15:24:40;11.23;87.85
63704;SHT31;49851;53.684;10.216;2022-11-15T15:27:05;11.24;87.95
63704;SHT31;49851;53.684;10.216;2022-11-15T15:29:30;11.23;88.29
63704;SHT31;49851;53.684;10.216;2022-11-15T15:31:56;11.18;88.37
63704;SHT31;49851;53.684;10.216;2022-11-15T15:34:21;11.20;88.11
63704;SHT31;49851;53.684;10.216;2022-11-15T15:36:46;11.20;88.32
63704;SHT31;49851;53.684;10.216;2022-11-15T15:39:11;11.19;88.56
63704;SHT31;49851;53.684;10.216;2022-11-15T15:41:37;11.23;87.65
63704;SHT31;49851;53.684;10.216;2022-11-15T15:44:02;11.22;88.37
63704;SHT31;49851;53.684;10.216;2022-11-15T15:46:27;11.23;88.47
63704;SHT31;49851;53.684;10.216;2022-11-15T15:48:52;11.23;88.16
63704;SHT31;49851;53.684;10.216;2022-11-15T15:51:18;11.19;88.27
63704;SHT31;49851;53.684;10.216;2022-11-15T15:53:43;11.18;88.05
63704;SHT31;49851;53.684;10.216;2022-11-15T15:56:08;11.15;88.43
63704;SHT31;49851;53.684;10.216;2022-11-15T15:58:34;11.16;87.97
63704;SHT31;49851;53.684;10.216;2022-11-15T16:00:59;11.16;87.71
63704;SHT31;49851;53.684;10.216;2022-11-15T16:03:25;11.19;87.77
63704;SHT31;49851;53.684;10.216;2022-11-15T16:05:50;11.18;88.10
63704;SHT31;49851;53.684;10.216;2022-11-15T16:08:19;11.15;88.33
63704;SHT31;49851;53.684;10.216;2022-11-15T16:10:45;11.16;88.19
63704;SHT31;49851;53.684;10.216;2022-11-15T16:13:10;11.15;88.20
63704;SHT31;49851;53.684;10.216;2022-11-15T16:15:36;11.18;88.37
63704;SHT31;49851;53.684;10.216;2022-11-15T16:18:01;11.16;88.39
63704;SHT31;49851;53.684;10.216;2022-11-15T16:20:31;11.18;87.88
63704;SHT31;49851;53.684;10.216;2022-11-15T16:22:57;11.20;88.17
63704;SHT31;49851;53.684;10.216;2022-11-15T16:25:23;11.18;88.04
63704;SHT31;49851;53.684;10.216;2022-11-15T16:27:48;11.18;88.21
63704;SHT31;49851;53.684;10.216;2022-11-15T16:30:14;11.23;87.87
63704;SHT31;49851;53.684;10.216;2022-11-15T16:32:39;11.23;87.84
63704;SHT31;49851;53.684;10.216;2022-11-15T16:35:05;11.23;88.18
63704;SHT31;49851;53.684;10.216;2022-11-15T16:37:30;11.27;88.01
63704;SHT31;49851;53.684;10.216;2022-11-15T16:39:56;11.23;88.25
63704;SHT31;49851;53.684;10.216;2022-11-15T16:42:21;11.26;88.03
63704;SHT31;49851;53.684;10.216;2022-11-15T16:44:46;11.22;87.94
63704;SHT31;49851;53.684;10.216;2022-11-15T16:47:15;11.24;87.37
63704;SHT31;49851;53.684;10.216;2022-11-15T16:49:42;11.24;88.04
63704;SHT31;49851;53.684;10.216;2022-11-15T16:52:07;11.27;87.60
63704;SHT31;49851;53.684;10.216;2022-11-15T16:54:32;11.23;87.52
63704;SHT31;49851;53.684;10.216;2022-11-15T16:56:58;11.26;87.41
63704;SHT31;49851;53.684;10.216;2022-11-15T16:59:23;11.24;86.75
63704;SHT31;49851;53.684;10.216;2022-11-15T17:01:48;11.22;87.43
63704;SHT31;49851;53.684;10.216;2022-11-15T17:04:17;11.22;87.65
63704;SHT31;49851;53.684;10.216;2022-11-15T17:06:43;11.22;87.58
63704;SHT31;49851;53.684;10.216;2022-11-15T17:09:10;11.22;88.10
63704;SHT31;49851;53.684;10.216;2022-11-15T17:11:35;11.23;88.26
63704;SHT31;49851;53.684;10.216;2022-11-15T17:14:01;11.27;87.71
63704;SHT31;49851;53.684;10.216;2022-11-15T17:16:26;11.27;87.69
63704;SHT31;49851;53.684;10.216;2022-11-15T17:18:51;11.27;87.40
63704;SHT31;49851;53.684;10.216;2022-11-15T17:21:17;11.24;87.57
63704;SHT31;49851;53.684;10.216;2022-11-15T17:23:43;11.29;87.90
63704;SHT31;49851;53.684;10.216;2022-11-15T17:26:09;11.27;87.82
63704;SHT31;49851;53.684;10.216;2022-11-15T17:28:35;11.29;87.85
63704;SHT31;49851;53.684;10.216;2022-11-15T17:31:01;11.31;87.68